Time;durP1;ratioP1;P1;durP2;ratioP2;P2;SDS_P1;SDS_P2;PMS_P1;PMS_P2;Temp;Humidity;BMP_temperature;BMP_pressure;BME280_temperature;BME280_humidity;BME280_pressure;Samples;Min_cycle;Max_cycle;Signal;HPM_P1;HPM_P2
2024/01/24 00:00:56;;;;;;;6.13;3.00;;;;;;;5.84;100.00;102762.13;2087005;28;20191;-64
2024/01/24 00:01:57;;;;;;;5.67;3.17;;;;;;;5.85;100.00;102769.22;2089071;28;20192;-64
2024/01/24 00:02:57;;;;;;;4.87;2.70;;;;;;;5.67;100.00;102737.59;2087328;28;20588;-64
2024/01/24 00:03:58;;;;;;;8.20;3.33;;;;;;;5.88;100.00;102763.81;2087018;28;20279;-63
2024/01/24 00:04:58;;;;;;;6.10;2.87;;;;;;;5.93;100.00;102768.25;2086075;28;20513;-63
2024/01/24 00:05:59;;;;;;;5.20;3.37;;;;;;;5.93;100.00;102760.00;2086553;28;20215;-64
2024/01/24 00:06:59;;;;;;;7.47;3.70;;;;;;;5.95;100.00;102769.53;2086922;28;20666;-63
2024/01/24 00:08:00;;;;;;;9.80;3.80;;;;;;;5.92;100.00;102772.19;2089094;28;20192;-63
2024/01/24 00:09:00;;;;;;;6.37;3.60;;;;;;;5.77;100.00;102768.19;2086852;28;20195;-63
2024/01/24 00:10:02;;;;;;;9.20;3.17;;;;;;;5.82;100.00;102775.41;2086445;28;20225;-64
2024/01/24 00:11:03;;;;;;;6.78;3.25;;;;;;;4.93;100.00;102633.63;2087043;28;20198;-64
2024/01/24 00:12:04;;;;;;;5.10;2.87;;;;;;;5.79;100.00;102787.88;2087034;28;20268;-63
2024/01/24 00:13:04;;;;;;;7.50;3.70;;;;;;;5.76;100.00;102776.78;2086733;28;20207;-63
2024/01/24 00:14:05;;;;;;;7.40;3.93;;;;;;;5.73;100.00;102793.97;2088936;28;20202;-64
2024/01/24 00:15:06;;;;;;;6.50;3.30;;;;;;;5.72;100.00;102789.63;2087422;28;20282;-63
2024/01/24 00:16:06;;;;;;;5.23;3.63;;;;;;;5.66;100.00;102799.28;2086930;28;20192;-63
2024/01/24 00:17:07;;;;;;;5.70;3.23;;;;;;;5.71;100.00;102799.84;2086990;28;20231;-64
2024/01/24 00:18:07;;;;;;;5.57;3.50;;;;;;;5.53;100.00;102768.22;2087458;28;20193;-64
2024/01/24 00:19:08;;;;;;;8.33;3.17;;;;;;;5.62;100.00;102787.34;2085943;28;20192;-64
2024/01/24 00:20:11;;;;;;;5.13;2.83;;;;;;;5.61;100.00;102803.06;2087606;28;20188;-63
2024/01/24 00:21:12;;;;;;;5.65;2.97;;;;;;;5.35;100.00;102769.66;2086949;28;20281;-63
2024/01/24 00:22:14;;;;;;;5.63;3.40;;;;;;;5.59;100.00;102793.56;2086420;28;20653;-63
2024/01/24 00:23:14;;;;;;;7.65;3.28;;;;;;;5.40;100.00;102782.34;2085947;28;20207;-63
2024/01/24 00:24:15;;;;;;;5.50;3.20;;;;;;;5.54;100.00;102791.81;2086251;28;20196;-64
2024/01/24 00:25:15;;;;;;;5.93;3.40;;;;;;;4.70;100.00;102659.16;2086488;28;20179;-64
2024/01/24 00:26:16;;;;;;;6.03;3.30;;;;;;;4.55;100.00;102646.94;2087656;28;20184;-63
2024/01/24 00:27:16;;;;;;;6.90;3.60;;;;;;;5.44;100.00;102800.53;2087128;28;20595;-63
2024/01/24 00:28:17;;;;;;;6.43;3.47;;;;;;;5.10;100.00;102743.31;2086795;28;20199;-64
2024/01/24 00:29:17;;;;;;;5.57;3.37;;;;;;;5.52;100.00;102796.06;2086994;28;20192;-63
2024/01/24 00:30:18;;;;;;;5.80;3.73;;;;;;;5.48;100.00;102795.97;2086730;28;20361;-64
2024/01/24 00:31:18;;;;;;;7.30;3.40;;;;;;;5.03;100.00;102720.31;2086399;28;20186;-63
2024/01/24 00:32:19;;;;;;;6.63;3.43;;;;;;;5.51;100.00;102799.97;2104173;28;20239;-63
2024/01/24 00:33:20;;;;;;;8.53;3.70;;;;;;;5.53;100.00;102798.47;2102209;28;20290;-63
2024/01/24 00:34:20;;;;;;;6.68;3.40;;;;;;;5.58;100.00;102797.44;2086904;28;20195;-64
2024/01/24 00:35:21;;;;;;;5.33;2.80;;;;;;;5.64;100.00;102798.81;2086956;28;20195;-63
2024/01/24 00:36:23;;;;;;;5.70;3.43;;;;;;;5.68;100.00;102799.72;2086103;28;20181;-63
2024/01/24 00:37:23;;;;;;;7.15;3.67;;;;;;;5.74;100.00;102790.88;2086302;28;20212;-64
2024/01/24 00:38:24;;;;;;;4.97;3.10;;;;;;;5.03;100.00;102676.34;2088875;28;20189;-64
2024/01/24 00:39:25;;;;;;;6.90;3.67;;;;;;;5.67;100.00;102787.94;2085474;28;20282;-64
2024/01/24 00:40:26;;;;;;;9.77;3.40;;;;;;;5.85;100.00;102778.25;2086185;28;20665;-63
2024/01/24 00:41:27;;;;;;;5.33;3.00;;;;;;;5.94;100.00;102786.41;2087217;28;20681;-64
2024/01/24 00:42:27;;;;;;;5.97;3.43;;;;;;;5.88;100.00;102790.53;2086280;28;20283;-64
2024/01/24 00:43:27;;;;;;;6.50;3.83;;;;;;;5.84;100.00;102784.91;2085913;28;20228;-63
2024/01/24 00:44:28;;;;;;;7.77;3.40;;;;;;;5.75;100.00;102794.44;2087759;28;20245;-63
2024/01/24 00:45:28;;;;;;;7.40;3.70;;;;;;;5.84;100.00;102787.69;2086768;28;20209;-63
2024/01/24 00:46:29;;;;;;;8.03;2.90;;;;;;;5.72;100.00;102770.38;2085635;28;20198;-63
2024/01/24 00:47:29;;;;;;;5.87;3.33;;;;;;;5.88;100.00;102785.84;2085526;28;20956;-63
2024/01/24 00:48:30;;;;;;;6.40;3.50;;;;;;;5.11;100.00;102678.94;2087069;28;20854;-64
2024/01/24 00:49:30;;;;;;;5.13;3.20;;;;;;;5.70;100.00;102780.94;2086400;28;20238;-63
2024/01/24 00:50:31;;;;;;;9.53;3.73;;;;;;;4.21;100.00;102528.56;2088654;28;20262;-64
2024/01/24 00:51:32;;;;;;;6.73;3.57;;;;;;;5.73;100.00;102777.47;2086960;28;20207;-63
2024/01/24 00:52:33;;;;;;;6.23;3.30;;;;;;;5.68;100.00;102780.44;2087367;28;20208;-63
2024/01/24 00:53:36;;;;;;;7.63;3.72;;;;;;;5.62;100.00;102777.16;2086437;28;20200;-64
2024/01/24 00:54:37;;;;;;;7.70;3.85;;;;;;;5.65;100.00;102783.91;2086788;28;20196;-63
2024/01/24 00:55:37;;;;;;;6.80;3.50;;;;;;;5.58;100.00;102783.69;2085172;28;20231;-63
2024/01/24 00:56:40;;;;;;;4.33;2.90;;;;;;;5.59;100.00;102788.06;2088613;28;20189;-63
2024/01/24 00:57:40;;;;;;;6.80;3.70;;;;;;;5.55;100.00;102787.94;2086543;28;20207;-63
2024/01/24 00:58:40;;;;;;;5.30;2.83;;;;;;;5.51;100.00;102770.53;2085850;28;20284;-63
2024/01/24 00:59:41;;;;;;;5.83;3.30;;;;;;;5.40;100.00;102766.66;2086743;28;20192;-63
2024/01/24 01:00:42;;;;;;;6.90;3.10;;;;;;;5.61;100.00;102783.81;2086401;28;20835;-63
2024/01/24 01:01:42;;;;;;;6.17;2.80;;;;;;;5.69;100.00;102788.38;2086300;28;20568;-63
2024/01/24 01:02:43;;;;;;;8.30;4.07;;;;;;;5.71;100.00;102797.09;2089026;28;20214;-63
2024/01/24 01:03:43;;;;;;;5.53;2.83;;;;;;;5.55;100.00;102738.41;2086743;28;20192;-63
2024/01/24 01:04:44;;;;;;;6.63;3.17;;;;;;;5.77;100.00;102781.13;2086079;28;20723;-64
2024/01/24 01:05:44;;;;;;;5.93;3.20;;;;;;;5.84;100.00;102784.13;2085128;28;20405;-63
2024/01/24 01:06:45;;;;;;;6.93;3.13;;;;;;;5.89;100.00;102783.91;2086492;28;20191;-63
2024/01/24 01:07:45;;;;;;;6.87;3.77;;;;;;;5.86;100.00;102782.66;2086327;28;20702;-63
2024/01/24 01:08:46;;;;;;;6.27;3.50;;;;;;;5.49;100.00;102719.78;2088889;28;20573;-63
2024/01/24 01:09:46;;;;;;;6.83;3.13;;;;;;;5.96;100.00;102779.41;2085845;28;20658;-62
2024/01/24 01:10:47;;;;;;;5.57;3.27;;;;;;;5.98;100.00;102785.34;2086275;28;20196;-64
2024/01/24 01:11:47;;;;;;;6.07;3.37;;;;;;;5.93;100.00;102779.28;2086501;28;20317;-63
2024/01/24 01:12:48;;;;;;;5.37;2.80;;;;;;;5.90;100.00;102786.28;2087126;28;20184;-63
2024/01/24 01:13:49;;;;;;;4.70;2.80;;;;;;;5.88;100.00;102780.31;2086306;28;20194;-63
2024/01/24 01:14:49;;;;;;;7.70;3.30;;;;;;;5.83;100.00;102780.56;2088356;28;20221;-63
2024/01/24 01:15:50;;;;;;;4.50;2.73;;;;;;;5.97;100.00;102775.50;2085193;28;20274;-63
2024/01/24 01:16:50;;;;;;;6.20;2.90;;;;;;;5.97;100.00;102771.94;2086208;28;20200;-63
2024/01/24 01:17:51;;;;;;;6.63;3.20;;;;;;;5.53;100.00;102695.94;2086204;28;20579;-63
2024/01/24 01:18:52;;;;;;;7.70;3.60;;;;;;;5.98;100.00;102774.34;2086910;28;20184;-63
2024/01/24 01:19:52;;;;;;;7.47;3.70;;;;;;;6.01;100.00;102778.34;2086597;28;20184;-63
2024/01/24 01:20:53;;;;;;;6.37;3.50;;;;;;;6.01;100.00;102768.13;2088712;28;20180;-64
2024/01/24 01:21:53;;;;;;;5.77;3.20;;;;;;;6.04;100.00;102775.69;2086330;28;20196;-63
2024/01/24 01:22:54;;;;;;;5.93;2.83;;;;;;;6.05;100.00;102782.00;2085496;28;20210;-63
2024/01/24 01:23:54;;;;;;;7.23;3.40;;;;;;;6.00;100.00;102774.00;2085635;28;20210;-64
2024/01/24 01:24:55;;;;;;;11.47;3.97;;;;;;;6.02;100.00;102774.44;2086582;28;20193;-63
2024/01/24 01:25:55;;;;;;;8.97;3.33;;;;;;;5.61;100.00;102723.28;2086108;28;20501;-63
2024/01/24 01:26:56;;;;;;;5.50;2.70;;;;;;;5.15;100.00;102637.81;2087948;28;20204;-63
2024/01/24 01:27:56;;;;;;;6.80;3.17;;;;;;;5.98;100.00;102771.59;2085149;28;20206;-63
2024/01/24 01:28:57;;;;;;;4.10;2.50;;;;;;;5.94;100.00;102759.66;2085859;28;20265;-63
2024/01/24 01:29:57;;;;;;;6.10;3.07;;;;;;;5.98;100.00;102760.56;2086124;28;20199;-63
2024/01/24 01:30:58;;;;;;;9.07;3.20;;;;;;;5.90;100.00;102753.25;2086279;28;20208;-63
2024/01/24 01:31:58;;;;;;;4.90;2.87;;;;;;;5.98;100.00;102752.31;2087533;28;20194;-64
2024/01/24 01:32:59;;;;;;;6.93;2.80;;;;;;;6.01;100.00;102759.06;2088466;28;20675;-63
2024/01/24 01:34:00;;;;;;;5.80;3.43;;;;;;;5.99;100.00;102759.41;2086094;28;20192;-62
2024/01/24 01:35:01;;;;;;;9.00;3.28;;;;;;;6.00;100.00;102749.22;2085098;28;20193;-63
2024/01/24 01:36:02;;;;;;;5.77;3.07;;;;;;;6.00;100.00;102755.50;2084872;28;20279;-63
2024/01/24 01:37:03;;;;;;;4.57;2.90;;;;;;;6.03;100.00;102762.25;2085830;28;20280;-63
2024/01/24 01:38:03;;;;;;;5.53;3.20;;;;;;;5.49;100.00;102684.81;2086997;28;20194;-63
2024/01/24 01:39:04;;;;;;;6.30;2.93;;;;;;;6.01;100.00;102746.09;2095344;28;20248;-63
2024/01/24 01:40:06;;;;;;;6.37;3.53;;;;;;;6.03;100.00;102752.06;2093777;28;20198;-63
2024/01/24 01:41:07;;;;;;;7.90;3.25;;;;;;;5.38;100.00;102645.19;2086624;28;20596;-63
2024/01/24 01:42:07;;;;;;;5.53;3.03;;;;;;;5.97;100.00;102747.16;2086039;28;20249;-63
2024/01/24 01:43:14;;;;;;;7.00;3.50;;;;;;;5.96;100.00;102754.63;2086598;28;20189;-62
2024/01/24 01:44:15;;;;;;;3.90;2.65;;;;;;;5.96;100.00;102748.31;2085778;28;20774;-63
2024/01/24 01:45:16;;;;;;;7.13;3.03;;;;;;;5.95;100.00;102749.47;2088359;28;20192;-64
2024/01/24 01:46:25;;;;;;;7.37;3.63;;;;;;;5.94;100.00;102754.16;2085275;28;20208;-63
2024/01/24 01:47:25;;;;;;;8.38;3.10;;;;;;;5.90;100.00;102752.47;2085856;28;20195;-63
2024/01/24 01:48:27;;;;;;;5.97;3.30;;;;;;;5.88;100.00;102758.31;2085873;28;20699;-64
2024/01/24 01:49:28;;;;;;;6.43;3.15;;;;;;;5.67;100.00;102710.91;2086310;28;20236;-62
2024/01/24 01:50:28;;;;;;;5.30;3.10;;;;;;;5.89;100.00;102750.88;2085292;28;20207;-63
2024/01/24 01:51:30;;;;;;;4.80;3.37;;;;;;;5.83;100.00;102742.06;2086246;28;20191;-63
2024/01/24 01:52:30;;;;;;;7.35;3.42;;;;;;;5.95;100.00;102752.22;2088386;28;20189;-63
2024/01/24 01:53:38;;;;;;;4.77;2.70;;;;;;;5.88;100.00;102744.56;2086300;28;20338;-63
2024/01/24 01:54:41;;;;;;;5.32;3.30;;;;;;;5.77;100.00;102748.94;2086351;28;20215;-63
2024/01/24 01:55:42;;;;;;;7.72;4.00;;;;;;;5.85;100.00;102758.22;2083437;28;20200;-64
2024/01/24 01:56:42;;;;;;;6.70;3.67;;;;;;;5.94;100.00;102764.38;2085647;28;20191;-63
2024/01/24 01:57:44;;;;;;;6.47;3.00;;;;;;;5.97;100.00;102761.72;2085927;28;20176;-64
2024/01/24 01:58:45;;;;;;;4.72;2.78;;;;;;;5.16;100.00;102667.72;2086417;28;20195;-64
2024/01/24 01:59:46;;;;;;;9.32;3.67;;;;;;;5.88;100.00;102768.50;2087854;28;20207;-63
2024/01/24 02:00:49;;;;;;;6.70;3.45;;;;;;;5.48;100.00;102718.97;2086601;28;20195;-62
2024/01/24 02:01:53;;;;;;;4.40;2.58;;;;;;;5.82;100.00;102748.72;2086004;28;20203;-63
2024/01/24 02:02:54;;;;;;;6.05;3.22;;;;;;;5.91;100.00;102759.56;2086328;28;20440;-63
2024/01/24 02:03:55;;;;;;;5.80;3.37;;;;;;;5.82;100.00;102758.91;2086389;28;20757;-63
2024/01/24 02:04:56;;;;;;;7.90;3.20;;;;;;;5.94;100.00;102773.44;2085941;28;20270;-63
2024/01/24 02:05:56;;;;;;;4.93;3.10;;;;;;;5.78;100.00;102738.69;2087456;28;20188;-63
2024/01/24 02:06:57;;;;;;;6.97;3.87;;;;;;;5.89;100.00;102768.16;2086005;28;20224;-62
2024/01/24 02:07:58;;;;;;;7.30;3.47;;;;;;;5.90;100.00;102760.72;2085886;28;21040;-62
2024/01/24 02:08:59;;;;;;;8.20;3.10;;;;;;;5.91;100.00;102765.88;2086260;28;20666;-63
2024/01/24 02:09:59;;;;;;;6.57;3.57;;;;;;;5.94;100.00;102769.91;2085069;28;20206;-63
2024/01/24 02:11:00;;;;;;;6.20;3.40;;;;;;;5.94;100.00;102764.38;2085832;28;20189;-63
2024/01/24 02:12:00;;;;;;;5.87;3.33;;;;;;;5.98;100.00;102773.53;2088147;28;20195;-63
2024/01/24 02:13:01;;;;;;;6.27;3.20;;;;;;;5.96;100.00;102768.41;2086593;28;20273;-63
2024/01/24 02:14:01;;;;;;;6.00;3.40;;;;;;;5.94;100.00;102778.16;2086001;28;20193;-64
2024/01/24 02:15:02;;;;;;;6.90;3.30;;;;;;;5.91;100.00;102765.88;2086062;28;20203;-63
2024/01/24 02:16:06;;;;;;;6.80;3.40;;;;;;;5.96;100.00;102773.91;2085255;28;20215;-64
2024/01/24 02:17:06;;;;;;;8.02;3.30;;;;;;;5.90;100.00;102774.47;2085594;28;20184;-63
2024/01/24 02:18:07;;;;;;;5.73;3.10;;;;;;;6.03;100.00;102776.84;2088379;28;20189;-63
2024/01/24 02:19:07;;;;;;;5.63;3.23;;;;;;;6.04;100.00;102777.63;2085293;28;20226;-63
2024/01/24 02:20:09;;;;;;;6.83;3.60;;;;;;;6.00;100.00;102768.50;2085543;28;20211;-64
2024/01/24 02:21:10;;;;;;;6.07;3.80;;;;;;;6.04;100.00;102778.44;2086210;28;20199;-63
2024/01/24 02:22:10;;;;;;;6.00;3.53;;;;;;;6.04;100.00;102778.44;2085941;28;20200;-63
2024/01/24 02:23:12;;;;;;;5.10;3.40;;;;;;;6.04;100.00;102777.63;2085949;28;20188;-64
2024/01/24 02:24:13;;;;;;;7.28;3.45;;;;;;;6.07;100.00;102774.19;2086504;28;20180;-64
2024/01/24 02:25:13;;;;;;;5.77;3.37;;;;;;;6.05;100.00;102762.75;2087405;28;20203;-64
2024/01/24 02:26:15;;;;;;;6.83;3.97;;;;;;;6.12;100.00;102769.25;2084898;28;20294;-64
2024/01/24 02:27:15;;;;;;;7.10;3.40;;;;;;;6.13;100.00;102759.00;2086220;28;20197;-64
2024/01/24 02:28:16;;;;;;;5.87;3.23;;;;;;;5.82;100.00;102703.88;2085945;28;20198;-64
2024/01/24 02:29:17;;;;;;;5.47;2.75;;;;;;;6.21;100.00;102775.38;2085756;28;20188;-64
2024/01/24 02:30:17;;;;;;;5.77;3.40;;;;;;;6.17;100.00;102766.25;2086577;28;20200;-64
2024/01/24 02:31:19;;;;;;;7.83;3.63;;;;;;;6.05;100.00;102755.25;2086955;28;20655;-64
2024/01/24 02:32:20;;;;;;;5.38;3.15;;;;;;;5.97;100.00;102760.91;2085827;28;20616;-63
2024/01/24 02:33:20;;;;;;;5.23;3.23;;;;;;;5.99;100.00;102766.84;2086355;28;20208;-63
2024/01/24 02:34:21;;;;;;;5.93;3.73;;;;;;;5.87;100.00;102766.91;2086398;28;20200;-63
2024/01/24 02:35:24;;;;;;;6.50;3.50;;;;;;;5.82;100.00;102764.41;2086151;28;20195;-64
2024/01/24 02:36:24;;;;;;;8.05;3.65;;;;;;;5.75;100.00;102764.19;2085086;28;20184;-64
2024/01/24 02:37:25;;;;;;;7.33;3.93;;;;;;;5.67;100.00;102760.41;2087229;28;20190;-63
2024/01/24 02:38:25;;;;;;;5.03;3.30;;;;;;;5.44;100.00;102722.75;2086094;28;20219;-64
2024/01/24 02:39:26;;;;;;;6.47;3.77;;;;;;;5.63;100.00;102756.75;2086391;28;20496;-63
2024/01/24 02:40:27;;;;;;;6.77;3.63;;;;;;;5.65;100.00;102757.19;2085695;28;20279;-64
2024/01/24 02:41:27;;;;;;;6.47;3.40;;;;;;;4.75;100.00;102601.25;2085160;28;20214;-63
2024/01/24 02:42:28;;;;;;;5.00;3.17;;;;;;;5.72;100.00;102760.16;2085988;28;20793;-64
2024/01/24 02:43:28;;;;;;;6.67;3.70;;;;;;;5.73;100.00;102756.25;2087858;28;20188;-63
2024/01/24 02:44:29;;;;;;;7.43;4.00;;;;;;;5.74;100.00;102754.31;2085969;28;20192;-64
2024/01/24 02:45:29;;;;;;;6.57;3.00;;;;;;;4.94;100.00;102632.50;2085659;28;20185;-63
2024/01/24 02:46:30;;;;;;;5.53;3.43;;;;;;;5.76;100.00;102757.53;2085152;28;20203;-64
2024/01/24 02:47:30;;;;;;;5.87;3.47;;;;;;;5.73;100.00;102755.44;2085793;28;20191;-63
2024/01/24 02:48:31;;;;;;;4.40;2.47;;;;;;;5.78;100.00;102768.97;2086132;28;20191;-64
2024/01/24 02:49:31;;;;;;;7.03;3.40;;;;;;;5.77;100.00;102767.38;2085847;28;20258;-63
2024/01/24 02:50:32;;;;;;;5.33;3.40;;;;;;;4.96;100.00;102638.44;2086194;28;20217;-63
2024/01/24 02:51:33;;;;;;;7.03;3.40;;;;;;;5.07;100.00;102660.75;2085099;28;20198;-64
2024/01/24 02:52:33;;;;;;;9.43;3.83;;;;;;;5.77;100.00;102765.44;2086192;28;20207;-64
2024/01/24 02:53:34;;;;;;;4.63;2.80;;;;;;;5.80;100.00;102767.50;2085889;28;20263;-64
2024/01/24 02:54:37;;;;;;;5.67;2.40;;;;;;;5.73;100.00;102753.50;2087751;28;20199;-64
2024/01/24 02:55:37;;;;;;;6.78;3.03;;;;;;;5.81;100.00;102782.06;2086565;28;20196;-64
2024/01/24 02:56:39;;;;;;;3.83;2.43;;;;;;;5.78;100.00;102782.72;2085609;28;20191;-63
2024/01/24 02:57:39;;;;;;;5.95;2.67;;;;;;;5.74;100.00;102779.09;2086161;28;20254;-63
2024/01/24 02:58:40;;;;;;;4.50;3.00;;;;;;;5.68;100.00;102772.19;2086357;28;20253;-64
2024/01/24 02:59:40;;;;;;;5.43;3.17;;;;;;;5.66;100.00;102772.56;2084939;28;20185;-63
2024/01/24 03:00:41;;;;;;;5.10;3.00;;;;;;;5.65;100.00;102778.41;2085882;28;20735;-64
2024/01/24 03:01:41;;;;;;;4.03;2.73;;;;;;;5.65;100.00;102784.69;2087389;28;20220;-64
2024/01/24 03:02:42;;;;;;;6.23;3.60;;;;;;;5.63;100.00;102783.44;2086291;28;20678;-64
2024/01/24 03:03:43;;;;;;;5.70;3.03;;;;;;;5.62;100.00;102781.84;2085980;28;20642;-64
2024/01/24 03:04:44;;;;;;;6.38;3.05;;;;;;;5.65;100.00;102781.16;2086073;28;20254;-63
2024/01/24 03:05:44;;;;;;;4.77;2.73;;;;;;;5.05;100.00;102685.03;2083865;28;20582;-64
2024/01/24 03:06:45;;;;;;;5.20;2.60;;;;;;;5.44;100.00;102745.53;2086176;28;20238;-63
2024/01/24 03:07:45;;;;;;;4.97;2.83;;;;;;;5.65;100.00;102770.16;2086677;28;20192;-64
2024/01/24 03:08:57;;;;;;;7.07;3.17;;;;;;;5.56;100.00;102764.78;2086197;28;20200;-64
2024/01/24 03:09:57;;;;;;;5.05;2.75;;;;;;;5.66;100.00;102777.25;2085754;28;20192;-63
2024/01/24 03:10:58;;;;;;;4.40;2.80;;;;;;;5.63;100.00;102784.25;2085487;28;20192;-64
2024/01/24 03:11:58;;;;;;;6.07;3.00;;;;;;;5.67;100.00;102806.38;2085550;28;20286;-63
2024/01/24 03:12:59;;;;;;;7.00;3.47;;;;;;;5.71;100.00;102788.03;2085812;28;20176;-63
2024/01/24 03:13:59;;;;;;;7.87;3.53;;;;;;;5.72;100.00;102786.88;2087085;28;20274;-64
2024/01/24 03:15:00;;;;;;;5.20;2.93;;;;;;;5.06;100.00;102690.19;2085592;28;20197;-63
2024/01/24 03:16:00;;;;;;;5.03;3.07;;;;;;;5.71;100.00;102791.59;2085135;28;20195;-63
2024/01/24 03:17:01;;;;;;;5.40;3.13;;;;;;;5.73;100.00;102789.28;2085313;28;20279;-63
2024/01/24 03:18:02;;;;;;;5.47;3.30;;;;;;;5.77;100.00;102779.19;2085243;28;20192;-63
2024/01/24 03:19:05;;;;;;;5.57;3.30;;;;;;;5.78;100.00;102783.53;2085742;28;20650;-64
2024/01/24 03:20:07;;;;;;;7.97;3.35;;;;;;;5.73;100.00;102769.22;2087045;28;20231;-63
2024/01/24 03:21:09;;;;;;;5.25;3.10;;;;;;;5.75;100.00;102791.69;2087221;28;20234;-64
2024/01/24 03:22:09;;;;;;;5.05;2.70;;;;;;;5.73;100.00;102788.47;2085369;28;20192;-64
2024/01/24 03:23:12;;;;;;;6.17;2.90;;;;;;;5.70;100.00;102783.69;2086089;28;20196;-64
2024/01/24 03:24:12;;;;;;;5.45;3.17;;;;;;;5.69;100.00;102782.06;2085897;28;20189;-64
2024/01/24 03:25:16;;;;;;;4.77;2.87;;;;;;;5.73;100.00;102772.78;2085924;28;20183;-64
2024/01/24 03:26:16;;;;;;;6.80;2.72;;;;;;;5.71;100.00;102786.09;2084241;28;20190;-63
2024/01/24 03:27:17;;;;;;;6.20;3.07;;;;;;;5.67;100.00;102771.41;2087310;28;20181;-64
2024/01/24 03:28:17;;;;;;;5.40;3.23;;;;;;;5.76;100.00;102782.28;2085743;28;20615;-64
2024/01/24 03:29:19;;;;;;;5.33;3.17;;;;;;;5.81;100.00;102790.31;2086393;28;20213;-64
2024/01/24 03:30:20;;;;;;;4.20;3.00;;;;;;;5.82;100.00;102786.41;2085686;28;20211;-64
2024/01/24 03:31:20;;;;;;;7.20;2.90;;;;;;;5.82;100.00;102795.50;2085794;28;20195;-64
2024/01/24 03:32:21;;;;;;;5.10;2.53;;;;;;;5.43;100.00;102721.16;2085487;28;20264;-64
2024/01/24 03:33:21;;;;;;;6.37;2.60;;;;;;;5.06;100.00;102670.13;2087373;28;20180;-64
2024/01/24 03:34:23;;;;;;;5.17;2.93;;;;;;;4.76;100.00;102633.88;2084269;28;20617;-63
2024/01/24 03:35:24;;;;;;;5.80;3.13;;;;;;;5.81;100.00;102795.84;2085491;28;20199;-63
2024/01/24 03:36:24;;;;;;;5.27;2.73;;;;;;;5.81;100.00;102793.88;2085138;28;20478;-64
2024/01/24 03:37:25;;;;;;;6.63;3.30;;;;;;;5.79;100.00;102800.88;2084824;28;20189;-64
2024/01/24 03:38:25;;;;;;;6.03;2.87;;;;;;;5.76;100.00;102801.53;2084701;28;20265;-63
2024/01/24 03:39:28;;;;;;;4.30;2.27;;;;;;;5.67;100.00;102787.09;2087264;28;20185;-64
2024/01/24 03:40:28;;;;;;;4.25;2.50;;;;;;;5.70;100.00;102802.94;2085655;28;20185;-63
2024/01/24 03:41:29;;;;;;;9.00;2.83;;;;;;;5.70;100.00;102797.44;2085922;28;20194;-64
2024/01/24 03:42:31;;;;;;;4.17;2.87;;;;;;;5.72;100.00;102809.69;2085753;28;20635;-63
2024/01/24 03:43:31;;;;;;;5.72;3.20;;;;;;;5.73;100.00;102799.47;2085849;28;20231;-64
2024/01/24 03:44:32;;;;;;;6.80;3.10;;;;;;;5.73;100.00;102800.28;2084916;28;20200;-64
2024/01/24 03:45:32;;;;;;;5.23;3.17;;;;;;;5.75;100.00;102806.22;2087069;28;20230;-64
2024/01/24 03:46:33;;;;;;;7.37;3.50;;;;;;;5.75;100.00;102805.44;2085532;28;20193;-64
2024/01/24 03:47:33;;;;;;;7.03;3.23;;;;;;;5.76;100.00;102807.84;2085184;28;20437;-63
2024/01/24 03:48:34;;;;;;;5.00;3.03;;;;;;;5.77;100.00;102817.72;2086061;28;20196;-63
2024/01/24 03:49:34;;;;;;;5.63;2.90;;;;;;;5.24;100.00;102746.50;2085627;28;20248;-64
2024/01/24 03:50:35;;;;;;;5.57;3.27;;;;;;;5.70;100.00;102811.19;2085661;28;20239;-63
2024/01/24 03:51:35;;;;;;;8.07;3.07;;;;;;;5.70;100.00;102814.72;2086589;28;20216;-64
2024/01/24 03:52:36;;;;;;;4.43;2.70;;;;;;;5.71;100.00;102819.09;2085370;28;20196;-64
2024/01/24 03:53:37;;;;;;;5.43;3.00;;;;;;;5.67;100.00;102818.19;2085268;28;20234;-64
2024/01/24 03:54:37;;;;;;;6.50;2.97;;;;;;;5.55;100.00;102803.66;2084980;28;20186;-64
2024/01/24 03:55:38;;;;;;;5.27;2.93;;;;;;;5.65;100.00;102808.69;2084516;28;20592;-64
2024/01/24 03:56:38;;;;;;;5.50;3.00;;;;;;;5.63;100.00;102819.19;2085661;28;20565;-63
2024/01/24 03:57:40;;;;;;;5.43;3.27;;;;;;;5.57;100.00;102815.91;2087710;28;20215;-64
2024/01/24 03:58:40;;;;;;;6.25;2.70;;;;;;;5.55;100.00;102815.44;2086844;28;20203;-64
2024/01/24 03:59:41;;;;;;;4.50;2.53;;;;;;;5.44;100.00;102811.53;2087421;28;20192;-64
2024/01/24 04:00:41;;;;;;;5.27;2.70;;;;;;;5.49;100.00;102819.56;2085592;28;20250;-64
2024/01/24 04:01:42;;;;;;;5.50;3.07;;;;;;;5.50;100.00;102825.88;2086102;28;20234;-64
2024/01/24 04:02:42;;;;;;;5.83;3.17;;;;;;;4.89;100.00;102736.31;2087356;28;20220;-64
2024/01/24 04:03:43;;;;;;;5.00;3.03;;;;;;;5.46;100.00;102813.97;2089140;28;20172;-64
2024/01/24 04:04:44;;;;;;;5.63;3.40;;;;;;;5.45;100.00;102809.63;2087329;28;20235;-63
2024/01/24 04:05:44;;;;;;;4.60;2.70;;;;;;;5.39;100.00;102811.78;2085585;28;20201;-64
2024/01/24 04:06:45;;;;;;;5.23;2.80;;;;;;;5.35;100.00;102808.13;2086836;28;20200;-64
2024/01/24 04:07:45;;;;;;;6.43;3.10;;;;;;;5.29;100.00;102795.75;2087036;28;20527;-64
2024/01/24 04:08:46;;;;;;;5.77;2.80;;;;;;;5.34;100.00;102811.22;2086930;28;20230;-64
2024/01/24 04:09:46;;;;;;;5.67;3.10;;;;;;;5.33;100.00;102813.16;2089103;28;20187;-64
2024/01/24 04:10:47;;;;;;;5.03;3.10;;;;;;;5.18;100.00;102786.34;2087495;28;20232;-64
2024/01/24 04:11:48;;;;;;;8.43;2.90;;;;;;;5.27;100.00;102811.78;2086983;28;20187;-64
2024/01/24 04:12:48;;;;;;;5.57;3.23;;;;;;;5.30;100.00;102813.06;2087135;28;20443;-64
2024/01/24 04:14:01;;;;;;;7.07;2.90;;;;;;;5.21;100.00;102813.16;2086741;28;20677;-64
2024/01/24 04:15:02;;;;;;;6.38;3.15;;;;;;;5.21;100.00;102809.59;2086601;28;20222;-63
2024/01/24 04:16:02;;;;;;;6.20;3.20;;;;;;;5.16;100.00;102818.91;2086373;28;20433;-64
2024/01/24 04:17:03;;;;;;;6.03;3.27;;;;;;;4.86;100.00;102773.53;2088809;28;20736;-64
2024/01/24 04:18:04;;;;;;;8.33;3.57;;;;;;;5.17;100.00;102822.44;2086581;28;20680;-64
2024/01/24 04:19:04;;;;;;;6.77;3.17;;;;;;;5.19;100.00;102834.69;2086989;28;20193;-64
2024/01/24 04:20:05;;;;;;;6.87;2.53;;;;;;;4.81;100.00;102764.69;2085912;28;20192;-64
2024/01/24 04:21:06;;;;;;;6.55;3.65;;;;;;;5.18;100.00;102833.09;2085287;28;20706;-64
2024/01/24 04:22:07;;;;;;;4.77;3.17;;;;;;;4.77;100.00;102770.06;2086943;28;20677;-64
2024/01/24 04:23:08;;;;;;;5.00;2.70;;;;;;;5.18;100.00;102835.06;2089046;28;20657;-63
2024/01/24 04:24:08;;;;;;;7.40;2.97;;;;;;;5.15;100.00;102830.22;2087164;28;20623;-64
2024/01/24 04:25:09;;;;;;;6.47;3.20;;;;;;;5.20;100.00;102833.56;2087308;28;20277;-63
2024/01/24 04:26:09;;;;;;;5.50;2.63;;;;;;;5.12;100.00;102850.94;2085100;28;20184;-64
2024/01/24 04:27:10;;;;;;;4.10;2.50;;;;;;;5.18;100.00;102841.34;2085133;28;20187;-64
2024/01/24 04:28:10;;;;;;;6.37;3.00;;;;;;;5.05;100.00;102850.72;2086580;28;20180;-64
2024/01/24 04:29:11;;;;;;;7.47;3.43;;;;;;;5.08;100.00;102850.03;2088556;28;20672;-64
2024/01/24 04:30:12;;;;;;;7.07;3.17;;;;;;;5.08;100.00;102849.25;2086199;28;20192;-64
2024/01/24 04:31:13;;;;;;;5.83;3.07;;;;;;;4.63;100.00;102780.59;2085720;28;20551;-64
2024/01/24 04:32:14;;;;;;;5.22;2.70;;;;;;;4.92;100.00;102840.84;2087279;28;20188;-64
2024/01/24 04:33:15;;;;;;;5.60;2.80;;;;;;;4.92;100.00;102838.09;2086970;28;20657;-64
2024/01/24 04:34:17;;;;;;;7.57;3.10;;;;;;;5.03;100.00;102844.75;2086831;28;20536;-64
2024/01/24 04:35:18;;;;;;;5.28;2.67;;;;;;;4.96;100.00;102832.72;2088929;28;20245;-64
2024/01/24 04:36:18;;;;;;;5.32;3.10;;;;;;;5.04;100.00;102845.56;2086583;28;20195;-64
2024/01/24 04:37:19;;;;;;;8.67;2.97;;;;;;;5.03;100.00;102844.75;2086370;28;20192;-64
2024/01/24 04:38:19;;;;;;;4.27;2.63;;;;;;;4.99;100.00;102854.03;2086761;28;20199;-64
2024/01/24 04:39:21;;;;;;;5.03;3.07;;;;;;;4.91;100.00;102839.25;2086947;28;20195;-63
2024/01/24 04:40:21;;;;;;;5.43;2.83;;;;;;;4.99;100.00;102845.78;2086394;28;20268;-64
2024/01/24 04:41:22;;;;;;;4.33;2.57;;;;;;;5.05;100.00;102845.22;2088976;28;20230;-64
2024/01/24 04:42:22;;;;;;;4.00;2.63;;;;;;;5.10;100.00;102846.94;2086827;28;20275;-64
2024/01/24 04:43:23;;;;;;;7.43;3.30;;;;;;;4.26;100.00;102712.22;2084677;28;20679;-64